Time;durP1;ratioP1;P1;durP2;ratioP2;P2;SDS_P1;SDS_P2;PMS_P1;PMS_P2;Temp;Humidity;BMP_temperature;BMP_pressure;BME280_temperature;BME280_humidity;BME280_pressure;Samples;Min_cycle;Max_cycle;Signal;HPM_P1;HPM_P2
2023/12/26 00:00:16;;;;;;;1566.97;999.90;;;;;;;;;;5026993;28;20144;-65
2023/12/26 00:02:43;;;;;;;1579.70;999.90;;;;;;;;;;5015349;28;20030;-62
2023/12/26 00:05:09;;;;;;;1584.40;999.90;;;;;;;;;;5034580;28;20482;-63
2023/12/26 00:07:36;;;;;;;1584.68;999.90;;;;;;;;;;5033547;28;20033;-64
2023/12/26 00:10:03;;;;;;;1588.20;999.90;;;;;;;;;;5029018;28;20041;-63
2023/12/26 00:12:30;;;;;;;1578.80;999.90;;;;;;;;;;5030048;28;20029;-63
2023/12/26 00:14:56;;;;;;;1568.57;999.90;;;;;;;;;;5033654;28;20033;-65
2023/12/26 00:17:23;;;;;;;1580.25;999.90;;;;;;;;;;5032105;28;20038;-65
2023/12/26 00:19:49;;;;;;;1551.70;999.90;;;;;;;;;;5033483;28;20029;-64
2023/12/26 00:22:16;;;;;;;1575.20;999.90;;;;;;;;;;5033299;28;20474;-62
2023/12/26 00:24:43;;;;;;;1607.07;999.90;;;;;;;;;;5031820;28;20034;-63
2023/12/26 00:27:09;;;;;;;1676.88;999.90;;;;;;;;;;5018408;28;20022;-64
2023/12/26 00:29:36;;;;;;;1583.00;999.90;;;;;;;;;;5016083;28;20028;-61
2023/12/26 00:32:03;;;;;;;1562.97;999.90;;;;;;;;;;5033348;28;20038;-61
2023/12/26 00:34:29;;;;;;;1569.50;999.90;;;;;;;;;;5032694;28;20355;-63
2023/12/26 00:36:56;;;;;;;1578.80;999.90;;;;;;;;;;5026772;28;20029;-62
2023/12/26 00:39:22;;;;;;;1585.95;999.90;;;;;;;;;;5033462;28;20505;-62
2023/12/26 00:41:49;;;;;;;1531.00;999.90;;;;;;;;;;5033376;28;20029;-67
2023/12/26 00:44:16;;;;;;;1580.47;999.90;;;;;;;;;;5033208;28;20026;-64
2023/12/26 00:46:46;;;;;;;1578.47;999.90;;;;;;;;;;5018207;28;20029;-66
2023/12/26 00:49:13;;;;;;;1572.50;999.90;;;;;;;;;;5027393;28;20028;-63
2023/12/26 00:51:39;;;;;;;1580.10;999.90;;;;;;;;;;5013805;28;20045;-64
2023/12/26 00:54:06;;;;;;;1555.00;999.90;;;;;;;;;;5017910;28;20036;-63
2023/12/26 00:56:33;;;;;;;1552.43;999.90;;;;;;;;;;5031381;28;20033;-64
2023/12/26 00:58:59;;;;;;;1564.93;999.90;;;;;;;;;;5032739;28;20120;-64
2023/12/26 01:01:26;;;;;;;1560.47;999.90;;;;;;;;;;5033061;28;20466;-63
2023/12/26 01:03:53;;;;;;;1558.97;999.90;;;;;;;;;;5028481;28;20038;-63
2023/12/26 01:06:19;;;;;;;1576.47;999.90;;;;;;;;;;5033153;28;20021;-63
2023/12/26 01:08:46;;;;;;;1570.38;999.90;;;;;;;;;;5032995;28;20423;-63
2023/12/26 01:11:13;;;;;;;1548.43;999.90;;;;;;;;;;5033193;28;20108;-62
2023/12/26 01:13:40;;;;;;;1571.20;999.90;;;;;;;;;;5026713;28;20029;-62
2023/12/26 01:16:07;;;;;;;1579.03;999.90;;;;;;;;;;5025292;28;20069;-63
2023/12/26 01:18:33;;;;;;;1538.97;999.90;;;;;;;;;;5021311;28;20029;-63
2023/12/26 01:21:00;;;;;;;1582.03;999.90;;;;;;;;;;5022539;28;20033;-63
2023/12/26 01:23:27;;;;;;;1547.35;999.90;;;;;;;;;;5023506;28;20144;-62
2023/12/26 01:25:54;;;;;;;1581.80;999.90;;;;;;;;;;5022749;28;20032;-62
2023/12/26 01:28:20;;;;;;;1585.47;999.90;;;;;;;;;;5024796;28;20097;-63
2023/12/26 01:30:47;;;;;;;1580.22;999.90;;;;;;;;;;5023004;28;20025;-61
2023/12/26 01:33:14;;;;;;;1576.13;999.90;;;;;;;;;;5026153;28;20482;-62
2023/12/26 01:35:41;;;;;;;1575.70;999.90;;;;;;;;;;5017219;28;20022;-62
2023/12/26 01:38:07;;;;;;;1570.07;999.90;;;;;;;;;;5013284;28;20022;-63
2023/12/26 01:40:34;;;;;;;1586.32;999.90;;;;;;;;;;5023724;28;20025;-63
2023/12/26 01:43:01;;;;;;;1580.25;999.90;;;;;;;;;;5028410;28;20033;-65
2023/12/26 01:45:27;;;;;;;1566.28;999.90;;;;;;;;;;5025029;28;20084;-62
2023/12/26 01:47:56;;;;;;;1571.80;999.90;;;;;;;;;;5024139;28;20368;-62
2023/12/26 01:50:23;;;;;;;1567.15;999.90;;;;;;;;;;5026630;28;20627;-62
2023/12/26 01:52:50;;;;;;;1544.65;999.90;;;;;;;;;;5027510;28;20030;-62
2023/12/26 01:55:17;;;;;;;1553.50;999.90;;;;;;;;;;5032644;28;20045;-63
2023/12/26 01:57:44;;;;;;;1563.40;999.90;;;;;;;;;;5025411;28;20337;-63
2023/12/26 02:00:11;;;;;;;1594.28;999.90;;;;;;;;;;5027220;28;20049;-63
2023/12/26 02:02:39;;;;;;;1576.85;999.90;;;;;;;;;;5026931;28;20026;-63
2023/12/26 02:05:06;;;;;;;1584.28;999.90;;;;;;;;;;5025066;28;20164;-63
2023/12/26 02:07:32;;;;;;;1557.97;999.90;;;;;;;;;;5027144;28;20512;-64
2023/12/26 02:10:00;;;;;;;1520.72;999.90;;;;;;;;;;5026235;28;20029;-63
2023/12/26 02:12:27;;;;;;;1569.65;999.90;;;;;;;;;;5024841;28;20029;-63
2023/12/26 02:14:53;;;;;;;1594.95;999.90;;;;;;;;;;5026534;28;20112;-63
2023/12/26 02:17:23;;;;;;;1581.78;999.90;;;;;;;;;;5031855;28;20449;-64
2023/12/26 02:19:50;;;;;;;1583.60;999.90;;;;;;;;;;5034336;28;20029;-63
2023/12/26 02:22:16;;;;;;;1578.32;999.90;;;;;;;;;;5036101;28;20037;-63
2023/12/26 02:24:44;;;;;;;1473.97;999.90;;;;;;;;;;5037139;28;20025;-62
2023/12/26 02:27:16;;;;;;;1488.05;999.90;;;;;;;;;;5037087;28;20025;-62
2023/12/26 02:29:42;;;;;;;;;;;;;;;;;;5037675;28;20428;-63
2023/12/26 02:32:10;;;;;;;1586.60;999.90;;;;;;;;;;5036599;28;19916;-63
2023/12/26 02:34:37;;;;;;;1570.95;999.90;;;;;;;;;;5036891;28;20025;-63
2023/12/26 02:37:03;;;;;;;1564.90;999.90;;;;;;;;;;5029038;28;20029;-63
2023/12/26 02:39:31;;;;;;;1586.53;999.90;;;;;;;;;;5033218;28;20033;-63
2023/12/26 02:41:57;;;;;;;1548.50;999.90;;;;;;;;;;5036708;28;20110;-63
2023/12/26 02:44:24;;;;;;;1592.28;999.90;;;;;;;;;;5016150;28;20057;-62
2023/12/26 02:46:51;;;;;;;1475.05;999.90;;;;;;;;;;5021911;28;20425;-64
2023/12/26 02:49:17;;;;;;;1582.03;999.90;;;;;;;;;;5025429;28;20026;-62
2023/12/26 02:51:44;;;;;;;1592.72;999.90;;;;;;;;;;5032582;28;20087;-63
2023/12/26 02:54:11;;;;;;;1574.38;999.90;;;;;;;;;;5032920;28;20521;-62
2023/12/26 02:56:38;;;;;;;1583.75;999.90;;;;;;;;;;5027960;28;20075;-65
2023/12/26 02:59:04;;;;;;;1584.53;999.90;;;;;;;;;;5026540;28;20045;-65
2023/12/26 03:01:31;;;;;;;1590.28;999.90;;;;;;;;;;5028359;28;20029;-66
2023/12/26 03:03:57;;;;;;;1589.57;999.90;;;;;;;;;;5028480;28;20469;-65
2023/12/26 03:06:24;;;;;;;1588.47;999.90;;;;;;;;;;5026598;28;20029;-63
2023/12/26 03:08:51;;;;;;;1582.18;999.90;;;;;;;;;;5025531;28;20026;-63
2023/12/26 03:11:17;;;;;;;1565.78;999.90;;;;;;;;;;5027200;28;20032;-63
2023/12/26 03:13:44;;;;;;;1588.55;999.90;;;;;;;;;;5026393;28;20478;-64
2023/12/26 03:16:10;;;;;;;1556.13;999.90;;;;;;;;;;5026914;28;20041;-63
2023/12/26 03:18:37;;;;;;;1509.28;999.90;;;;;;;;;;5020371;28;20554;-63
2023/12/26 03:21:04;;;;;;;1520.78;999.90;;;;;;;;;;5022714;28;20088;-64
2023/12/26 03:23:30;;;;;;;1597.70;999.90;;;;;;;;;;5021921;28;20026;-64
2023/12/26 03:25:57;;;;;;;1583.78;999.90;;;;;;;;;;5022845;28;20022;-65
2023/12/26 03:28:24;;;;;;;1592.07;999.90;;;;;;;;;;5033792;28;20022;-65
2023/12/26 03:30:50;;;;;;;1588.85;999.90;;;;;;;;;;5022791;28;20028;-66
2023/12/26 03:33:17;;;;;;;1590.47;999.90;;;;;;;;;;5015772;28;20029;-64
2023/12/26 03:35:44;;;;;;;1590.07;999.90;;;;;;;;;;5029124;28;20025;-69
2023/12/26 03:38:10;;;;;;;1592.00;999.90;;;;;;;;;;5032618;28;20482;-64
2023/12/26 03:40:37;;;;;;;1543.88;999.90;;;;;;;;;;5033611;28;20021;-63
2023/12/26 03:43:03;;;;;;;1591.22;999.90;;;;;;;;;;5033610;28;20040;-63
2023/12/26 03:45:30;;;;;;;1582.93;999.90;;;;;;;;;;5033601;28;20030;-64
2023/12/26 03:47:57;;;;;;;1585.55;999.90;;;;;;;;;;5031874;28;20025;-63
2023/12/26 03:50:23;;;;;;;1592.20;999.90;;;;;;;;;;5031590;28;20040;-63
2023/12/26 03:52:50;;;;;;;1591.95;999.90;;;;;;;;;;5031294;28;20068;-63
2023/12/26 03:55:17;;;;;;;1585.85;999.90;;;;;;;;;;5032139;28;20030;-62
2023/12/26 03:57:43;;;;;;;1562.00;999.90;;;;;;;;;;5032786;28;20044;-63
2023/12/26 04:00:10;;;;;;;1562.95;999.90;;;;;;;;;;5032681;28;20414;-63
2023/12/26 04:02:37;;;;;;;1584.40;999.90;;;;;;;;;;5032824;28;20481;-63
2023/12/26 04:05:04;;;;;;;1585.03;999.90;;;;;;;;;;5033081;28;20025;-63
2023/12/26 04:07:30;;;;;;;1584.93;999.90;;;;;;;;;;5032777;28;20033;-63
2023/12/26 04:09:58;;;;;;;1582.15;999.90;;;;;;;;;;5032169;28;20387;-63
2023/12/26 04:12:25;;;;;;;1583.45;999.90;;;;;;;;;;5032949;28;20048;-63
2023/12/26 04:14:51;;;;;;;1566.13;999.90;;;;;;;;;;5033308;28;20029;-63
2023/12/26 04:17:19;;;;;;;1583.80;999.90;;;;;;;;;;5033125;28;20025;-63
2023/12/26 04:19:46;;;;;;;1586.45;999.90;;;;;;;;;;5033249;28;20036;-62
2023/12/26 04:22:13;;;;;;;1581.47;999.90;;;;;;;;;;5033303;28;20028;-62
2023/12/26 04:24:41;;;;;;;1586.80;999.90;;;;;;;;;;5033344;28;20045;-63
2023/12/26 04:27:08;;;;;;;1584.95;999.90;;;;;;;;;;5033299;28;20505;-62
2023/12/26 04:29:35;;;;;;;1571.13;999.90;;;;;;;;;;5033193;28;20029;-63
2023/12/26 04:32:01;;;;;;;1581.95;999.90;;;;;;;;;;5033023;28;20359;-63
2023/12/26 04:34:28;;;;;;;1563.00;999.90;;;;;;;;;;5033222;28;20087;-62
2023/12/26 04:36:55;;;;;;;1584.40;999.90;;;;;;;;;;5033033;28;20441;-62
2023/12/26 04:39:22;;;;;;;1543.55;999.90;;;;;;;;;;5032890;28;20029;-63
2023/12/26 04:41:48;;;;;;;1573.88;999.90;;;;;;;;;;5032941;28;20040;-63
2023/12/26 04:44:15;;;;;;;1588.18;999.90;;;;;;;;;;5033151;28;20052;-63
2023/12/26 04:46:42;;;;;;;1577.70;999.90;;;;;;;;;;5032853;28;20018;-63
2023/12/26 04:49:08;;;;;;;1586.55;999.90;;;;;;;;;;5032982;28;20021;-63
2023/12/26 04:51:35;;;;;;;1556.38;999.90;;;;;;;;;;5032955;28;20025;-62
2023/12/26 04:54:02;;;;;;;1539.88;999.90;;;;;;;;;;5032833;28;20029;-62
2023/12/26 04:56:28;;;;;;;1589.18;999.90;;;;;;;;;;5032814;28;20425;-63
2023/12/26 04:58:56;;;;;;;1593.75;999.90;;;;;;;;;;5032658;28;20037;-63
2023/12/26 05:01:23;;;;;;;1588.32;999.90;;;;;;;;;;5032602;28;20492;-63
2023/12/26 05:03:50;;;;;;;1584.00;999.90;;;;;;;;;;5032835;28;20036;-62
2023/12/26 05:06:19;;;;;;;1584.82;999.90;;;;;;;;;;5033040;28;20025;-62
2023/12/26 05:08:46;;;;;;;1586.75;999.90;;;;;;;;;;5032629;28;20212;-63
2023/12/26 05:11:22;;;;;;;1586.15;999.90;;;;;;;;;;5032726;28;20120;-63
2023/12/26 05:13:49;;;;;;;1588.50;999.90;;;;;;;;;;5032840;28;20528;-63
2023/12/26 05:16:17;;;;;;;1586.97;999.90;;;;;;;;;;5036410;28;20398;-62
2023/12/26 05:18:43;;;;;;;1590.63;999.90;;;;;;;;;;5036598;28;20030;-62
2023/12/26 05:21:19;;;;;;;1586.45;999.90;;;;;;;;;;5036452;28;20034;-62
2023/12/26 05:23:46;;;;;;;1591.90;999.90;;;;;;;;;;5036470;28;20033;-62
2023/12/26 05:26:13;;;;;;;1583.97;999.90;;;;;;;;;;5036534;28;20076;-62
2023/12/26 05:28:40;;;;;;;1587.25;999.90;;;;;;;;;;5036441;28;20096;-63
2023/12/26 05:31:06;;;;;;;1573.75;999.90;;;;;;;;;;5036363;28;20446;-62
2023/12/26 05:33:33;;;;;;;1588.97;999.90;;;;;;;;;;5036178;28;20489;-62
2023/12/26 05:36:01;;;;;;;1583.50;999.90;;;;;;;;;;5036495;28;20030;-62
2023/12/26 05:38:28;;;;;;;1589.95;999.90;;;;;;;;;;5036459;28;20219;-62
2023/12/26 05:40:54;;;;;;;1581.25;999.90;;;;;;;;;;5036221;28;20040;-62
2023/12/26 05:43:21;;;;;;;1584.30;999.90;;;;;;;;;;5036049;28;20025;-62
2023/12/26 05:45:48;;;;;;;1590.95;999.90;;;;;;;;;;5035904;28;20601;-62
2023/12/26 05:48:14;;;;;;;1588.82;999.90;;;;;;;;;;5036137;28;20017;-63
2023/12/26 05:50:41;;;;;;;1594.20;999.90;;;;;;;;;;5036045;28;20022;-62
2023/12/26 05:53:08;;;;;;;1586.10;999.90;;;;;;;;;;5035751;28;20024;-62
2023/12/26 05:55:34;;;;;;;1551.93;999.90;;;;;;;;;;5035788;28;20103;-63
2023/12/26 05:58:01;;;;;;;1592.10;999.90;;;;;;;;;;5036044;28;20100;-63
2023/12/26 06:00:28;;;;;;;1594.05;999.90;;;;;;;;;;5035303;28;20057;-63
2023/12/26 06:02:54;;;;;;;1575.70;999.90;;;;;;;;;;5035640;28;20041;-62
2023/12/26 06:05:21;;;;;;;1590.80;999.90;;;;;;;;;;5035690;28;20032;-63
2023/12/26 06:07:48;;;;;;;1548.85;999.90;;;;;;;;;;5035541;28;20025;-63
2023/12/26 06:10:14;;;;;;;1570.72;999.90;;;;;;;;;;5035620;28;20018;-63
2023/12/26 06:12:41;;;;;;;1556.60;999.90;;;;;;;;;;5035672;28;20533;-63
2023/12/26 06:15:08;;;;;;;1572.22;999.90;;;;;;;;;;5035497;28;20025;-63
2023/12/26 06:17:36;;;;;;;1555.13;999.90;;;;;;;;;;5035443;28;20033;-63
2023/12/26 06:20:03;;;;;;;1592.00;999.90;;;;;;;;;;5035410;28;20029;-63
2023/12/26 06:22:30;;;;;;;1542.45;999.90;;;;;;;;;;5035191;28;20029;-63
2023/12/26 06:24:57;;;;;;;1581.28;999.90;;;;;;;;;;5035262;28;20025;-63
2023/12/26 06:27:23;;;;;;;1544.53;999.90;;;;;;;;;;5034605;28;20025;-63
2023/12/26 06:29:50;;;;;;;1570.63;999.90;;;;;;;;;;5035282;28;20022;-62
2023/12/26 06:32:17;;;;;;;1536.43;999.90;;;;;;;;;;5035337;28;20025;-63
2023/12/26 06:34:43;;;;;;;1588.80;999.90;;;;;;;;;;5035166;28;20108;-63
2023/12/26 06:37:10;;;;;;;1588.45;999.90;;;;;;;;;;5035076;28;20390;-63
2023/12/26 06:39:38;;;;;;;1596.75;999.90;;;;;;;;;;5035079;28;20398;-63
2023/12/26 06:42:05;;;;;;;1567.72;999.90;;;;;;;;;;5034944;28;20061;-62
2023/12/26 06:44:31;;;;;;;1591.13;999.90;;;;;;;;;;5034905;28;20025;-63
2023/12/26 06:46:58;;;;;;;1597.20;999.90;;;;;;;;;;5034963;28;20092;-62
2023/12/26 06:49:25;;;;;;;1599.97;999.90;;;;;;;;;;5034987;28;20512;-63
2023/12/26 06:51:51;;;;;;;1596.13;999.90;;;;;;;;;;5034690;28;20033;-62
2023/12/26 06:54:18;;;;;;;1586.47;999.90;;;;;;;;;;5034947;28;20025;-63
2023/12/26 06:56:44;;;;;;;1598.00;999.90;;;;;;;;;;5034764;28;20022;-63
2023/12/26 06:59:11;;;;;;;1565.38;999.90;;;;;;;;;;5034498;28;20483;-63
2023/12/26 07:01:38;;;;;;;1601.13;999.90;;;;;;;;;;5034535;28;20026;-63
2023/12/26 07:04:05;;;;;;;1593.70;999.90;;;;;;;;;;5034828;28;20100;-63
2023/12/26 07:06:32;;;;;;;1595.22;999.90;;;;;;;;;;5034543;28;20536;-63
2023/12/26 07:08:59;;;;;;;1600.45;999.90;;;;;;;;;;5034731;28;20025;-63
2023/12/26 07:11:26;;;;;;;1582.28;999.90;;;;;;;;;;5034730;28;20017;-63
2023/12/26 07:13:52;;;;;;;1591.53;999.90;;;;;;;;;;5034469;28;20107;-63
2023/12/26 07:16:19;;;;;;;1575.57;999.90;;;;;;;;;;5034239;28;20025;-63
2023/12/26 07:18:47;;;;;;;1568.30;999.90;;;;;;;;;;5034445;28;20029;-62
2023/12/26 07:21:17;;;;;;;1586.63;999.90;;;;;;;;;;5034216;28;20037;-62
2023/12/26 07:23:46;;;;;;;1576.20;999.90;;;;;;;;;;5034443;28;20111;-63
2023/12/26 07:26:13;;;;;;;1584.43;999.90;;;;;;;;;;5034168;28;20033;-63
2023/12/26 07:28:40;;;;;;;1592.63;999.90;;;;;;;;;;5034049;28;20530;-63
2023/12/26 07:31:07;;;;;;;1587.80;999.90;;;;;;;;;;5033981;28;20052;-63
2023/12/26 07:33:33;;;;;;;1574.63;999.90;;;;;;;;;;5034142;28;20026;-63
2023/12/26 07:36:01;;;;;;;1577.25;999.90;;;;;;;;;;5033980;28;20466;-63
2023/12/26 07:38:27;;;;;;;1597.68;999.90;;;;;;;;;;5033473;28;20025;-63
2023/12/26 07:40:54;;;;;;;1589.95;999.90;;;;;;;;;;5033868;28;20029;-63
2023/12/26 07:43:21;;;;;;;1588.30;999.90;;;;;;;;;;5034071;28;20536;-63
2023/12/26 07:45:47;;;;;;;1590.28;999.90;;;;;;;;;;5033686;28;20029;-63
2023/12/26 07:48:14;;;;;;;1577.22;999.90;;;;;;;;;;5033929;28;20478;-63
2023/12/26 07:50:41;;;;;;;1576.28;999.90;;;;;;;;;;5033689;28;20040;-63
2023/12/26 07:53:07;;;;;;;1578.40;999.90;;;;;;;;;;5033549;28;20072;-63
2023/12/26 07:55:34;;;;;;;1596.80;999.90;;;;;;;;;;5033748;28;20021;-63
2023/12/26 07:58:00;;;;;;;1596.65;999.90;;;;;;;;;;5033650;28;20390;-63
2023/12/26 08:00:27;;;;;;;1593.00;999.90;;;;;;;;;;5033188;28;20099;-63
2023/12/26 08:02:54;;;;;;;1590.82;999.90;;;;;;;;;;5033762;28;20536;-63
2023/12/26 08:05:21;;;;;;;1579.05;999.90;;;;;;;;;;5033488;28;20030;-63
2023/12/26 08:07:47;;;;;;;1580.35;999.90;;;;;;;;;;5033299;28;20363;-63
2023/12/26 08:10:14;;;;;;;1597.55;999.90;;;;;;;;;;5033448;28;20022;-63
2023/12/26 08:12:40;;;;;;;1585.60;999.90;;;;;;;;;;5033490;28;20079;-63
2023/12/26 08:15:09;;;;;;;1597.80;999.90;;;;;;;;;;5033237;28;20425;-63
2023/12/26 08:17:36;;;;;;;1576.32;999.90;;;;;;;;;;5033293;28;20040;-63
2023/12/26 08:20:03;;;;;;;1584.88;999.90;;;;;;;;;;5033371;28;20079;-63
2023/12/26 08:22:30;;;;;;;1595.25;999.90;;;;;;;;;;5033051;28;20030;-63
2023/12/26 08:24:56;;;;;;;1592.43;999.90;;;;;;;;;;5033234;28;20032;-62
2023/12/26 08:27:23;;;;;;;1594.18;999.90;;;;;;;;;;5033309;28;20065;-62
2023/12/26 08:29:50;;;;;;;1588.75;999.90;;;;;;;;;;5033294;28;20068;-62
2023/12/26 08:32:17;;;;;;;1595.75;999.90;;;;;;;;;;5033156;28;20026;-62
2023/12/26 08:34:44;;;;;;;1593.35;999.90;;;;;;;;;;5033237;28;20435;-62
2023/12/26 08:37:12;;;;;;;1592.63;999.90;;;;;;;;;;5033123;28;20033;-63
2023/12/26 08:39:39;;;;;;;1587.13;999.90;;;;;;;;;;5033020;28;20032;-62
2023/12/26 08:42:06;;;;;;;1595.30;999.90;;;;;;;;;;5032926;28;20032;-63
2023/12/26 08:44:33;;;;;;;1588.00;999.90;;;;;;;;;;5032932;28;20017;-62
2023/12/26 08:47:08;;;;;;;1600.13;999.90;;;;;;;;;;5033109;28;20017;-62
2023/12/26 08:49:35;;;;;;;1599.57;999.90;;;;;;;;;;5034102;28;20026;-62
2023/12/26 08:52:02;;;;;;;1590.13;999.90;;;;;;;;;;5036981;28;20470;-62
2023/12/26 08:54:29;;;;;;;1602.65;999.90;;;;;;;;;;5036962;28;20104;-63
2023/12/26 08:56:55;;;;;;;1596.25;999.90;;;;;;;;;;5036958;28;20083;-63
2023/12/26 08:59:22;;;;;;;1597.82;999.90;;;;;;;;;;5036692;28;20042;-62
2023/12/26 09:01:49;;;;;;;1603.55;999.90;;;;;;;;;;5036814;28;20034;-63
2023/12/26 09:04:16;;;;;;;1602.50;999.90;;;;;;;;;;5036847;28;20033;-62
2023/12/26 09:06:42;;;;;;;1601.20;999.90;;;;;;;;;;5036659;28;20053;-63
2023/12/26 09:09:09;;;;;;;1596.80;999.90;;;;;;;;;;5036776;28;20026;-63
2023/12/26 09:11:35;;;;;;;1581.88;999.90;;;;;;;;;;5036715;28;20108;-63
2023/12/26 09:14:02;;;;;;;1597.88;999.90;;;;;;;;;;5036491;28;20021;-63
2023/12/26 09:16:29;;;;;;;1589.35;999.90;;;;;;;;;;5036806;28;20025;-63
2023/12/26 09:18:55;;;;;;;1605.13;999.90;;;;;;;;;;5036737;28;20018;-62
2023/12/26 09:21:22;;;;;;;1599.95;999.90;;;;;;;;;;5036426;28;20029;-62
2023/12/26 09:23:48;;;;;;;1605.18;999.90;;;;;;;;;;5036702;28;20018;-62
2023/12/26 09:26:21;;;;;;;1602.72;999.90;;;;;;;;;;5036602;28;20022;-61
2023/12/26 09:28:48;;;;;;;1599.32;999.90;;;;;;;;;;5036623;28;20029;-62
2023/12/26 09:31:15;;;;;;;1603.55;999.90;;;;;;;;;;5036608;28;20104;-63
2023/12/26 09:33:41;;;;;;;1610.80;999.90;;;;;;;;;;5036366;28;20025;-63
2023/12/26 09:36:08;;;;;;;1597.72;999.90;;;;;;;;;;5036047;28;20022;-63
2023/12/26 09:38:35;;;;;;;1616.90;999.90;;;;;;;;;;5036250;28;20386;-62
2023/12/26 09:41:02;;;;;;;1609.70;999.90;;;;;;;;;;5036191;28;20025;-63
2023/12/26 09:43:28;;;;;;;1619.55;999.90;;;;;;;;;;5035987;28;20383;-62
2023/12/26 09:45:56;;;;;;;1601.38;999.90;;;;;;;;;;5036109;28;20390;-62
2023/12/26 09:48:24;;;;;;;1612.07;999.90;;;;;;;;;;5036124;28;20087;-62
2023/12/26 09:50:54;;;;;;;1615.45;999.90;;;;;;;;;;5035855;28;20021;-62
2023/12/26 09:53:24;;;;;;;1615.35;999.90;;;;;;;;;;5035985;28;20025;-62
2023/12/26 09:55:51;;;;;;;1605.60;999.90;;;;;;;;;;5035841;28;20395;-63
2023/12/26 09:58:18;;;;;;;1607.95;999.90;;;;;;;;;;5035687;28;20467;-63
2023/12/26 10:00:47;;;;;;;1610.38;999.90;;;;;;;;;;5034968;28;20049;-62
2023/12/26 10:03:14;;;;;;;1612.43;999.90;;;;;;;;;;5035547;28;20041;-62
2023/12/26 10:05:41;;;;;;;1610.78;999.90;;;;;;;;;;5035666;28;20049;-63
2023/12/26 10:08:07;;;;;;;1595.32;999.90;;;;;;;;;;5035694;28;20057;-62
2023/12/26 10:10:34;;;;;;;1616.63;999.90;;;;;;;;;;5035640;28;20079;-62
2023/12/26 10:13:01;;;;;;;1595.80;999.90;;;;;;;;;;5035759;28;20356;-62
2023/12/26 10:15:27;;;;;;;1574.22;999.90;;;;;;;;;;5035605;28;20076;-63
2023/12/26 10:17:56;;;;;;;1621.88;999.90;;;;;;;;;;5035501;28;20044;-62
2023/12/26 10:20:22;;;;;;;1610.30;999.90;;;;;;;;;;5035395;28;20022;-62
2023/12/26 10:22:49;;;;;;;1611.00;999.90;;;;;;;;;;5035533;28;20033;-63
2023/12/26 10:25:16;;;;;;;1605.25;999.90;;;;;;;;;;5035386;28;20025;-62
2023/12/26 10:27:53;;;;;;;1609.25;999.90;;;;;;;;;;5035188;28;20049;-62
2023/12/26 10:30:21;;;;;;;1611.50;999.90;;;;;;;;;;5035293;28;20497;-62
2023/12/26 10:32:47;;;;;;;1615.90;999.90;;;;;;;;;;5035546;28;20057;-62
2023/12/26 10:35:14;;;;;;;1613.65;999.90;;;;;;;;;;5035042;28;20112;-62
2023/12/26 10:37:41;;;;;;;1595.07;999.90;;;;;;;;;;5035300;28;20109;-63
2023/12/26 10:40:08;;;;;;;1592.65;999.90;;;;;;;;;;5035187;28;20462;-62
2023/12/26 10:42:39;;;;;;;1567.05;999.90;;;;;;;;;;5034820;28;20034;-62
2023/12/26 10:45:06;;;;;;;1597.50;999.90;;;;;;;;;;5034985;28;20394;-62
2023/12/26 10:47:33;;;;;;;1612.97;999.90;;;;;;;;;;5034923;28;20031;-62
2023/12/26 10:50:00;;;;;;;1619.78;999.90;;;;;;;;;;5034794;28;20029;-62
2023/12/26 10:52:29;;;;;;;1627.30;999.90;;;;;;;;;;5034842;28;20091;-62
2023/12/26 10:54:58;;;;;;;1625.60;999.90;;;;;;;;;;5034727;28;20021;-63
2023/12/26 10:57:25;;;;;;;1600.45;999.90;;;;;;;;;;5034723;28;20029;-63
2023/12/26 13:51:56;;;;;;;1611.43;999.90;;;;;;;;;;5093827;28;20104;-63
2023/12/26 13:54:42;;;;;;;1628.43;999.90;;;;;;;;;;5051121;28;20033;-64
2023/12/26 13:57:29;;;;;;;1628.47;999.90;;;;;;;;;;4972681;28;20031;-64
2023/12/26 14:00:15;;;;;;;1604.32;999.90;;;;;;;;;;4961927;28;20456;-63
2023/12/26 14:03:02;;;;;;;1611.70;999.90;;;;;;;;;;4887154;29;20434;-63
2023/12/26 14:05:49;;;;;;;1636.50;999.90;;;;;;;;;;4877145;29;20037;-63
2023/12/26 14:08:35;;;;;;;1627.53;999.90;;;;;;;;;;4821392;29;20049;-62
2023/12/26 14:11:23;;;;;;;1610.82;999.90;;;;;;;;;;4786264;30;20043;-63
2023/12/26 14:14:09;;;;;;;1614.78;999.90;;;;;;;;;;4749870;30;20068;-64
2023/12/26 14:28:55;;;;;;;1610.10;999.90;;;;;;;;;;5181160;27;20351;-64
2023/12/26 14:31:24;;;;;;;1621.80;999.90;;;;;;;;;;5172726;27;20479;-65
2023/12/26 14:33:51;;;;;;;1617.80;999.90;;;;;;;;;;5172588;27;20023;-63
2023/12/26 14:36:17;;;;;;;1619.60;999.90;;;;;;;;;;5172482;27;20027;-63
2023/12/26 14:38:44;;;;;;;1626.43;999.90;;;;;;;;;;5171888;27;20386;-63
2023/12/26 14:41:11;;;;;;;1614.07;999.90;;;;;;;;;;5171007;27;20021;-66
2023/12/26 14:43:37;;;;;;;1613.97;999.90;;;;;;;;;;5172698;27;20366;-64
2023/12/26 14:46:04;;;;;;;1623.63;999.90;;;;;;;;;;5169943;27;20478;-61
2023/12/26 14:48:31;;;;;;;1610.47;999.90;;;;;;;;;;5172483;27;20061;-64
2023/12/26 14:50:57;;;;;;;1602.63;999.90;;;;;;;;;;5172293;27;20078;-64
2023/12/26 14:53:24;;;;;;;1614.60;999.90;;;;;;;;;;5168809;27;20425;-63
2023/12/26 14:55:51;;;;;;;1602.75;999.90;;;;;;;;;;5159832;27;20068;-63
2023/12/26 14:58:17;;;;;;;1626.78;999.90;;;;;;;;;;5150135;27;20027;-64
2023/12/26 15:00:44;;;;;;;1597.90;999.90;;;;;;;;;;5151480;27;20019;-65
2023/12/26 15:03:11;;;;;;;1625.90;999.90;;;;;;;;;;5147882;27;20495;-64
2023/12/26 15:05:37;;;;;;;1593.20;999.90;;;;;;;;;;5141647;27;20471;-64
2023/12/26 15:08:04;;;;;;;1620.30;999.90;;;;;;;;;;5148809;27;20019;-64
2023/12/26 15:10:32;;;;;;;1624.57;999.90;;;;;;;;;;5150116;27;20027;-64
2023/12/26 15:13:00;;;;;;;1616.82;999.90;;;;;;;;;;5150645;27;20023;-63
2023/12/26 15:15:28;;;;;;;1611.68;999.90;;;;;;;;;;5147778;27;20027;-62
2023/12/26 15:17:54;;;;;;;1608.00;999.90;;;;;;;;;;5132779;27;20059;-64
2023/12/26 15:20:21;;;;;;;1607.60;999.90;;;;;;;;;;5150643;27;20105;-65
2023/12/26 15:22:49;;;;;;;1610.60;999.90;;;;;;;;;;5149129;27;20027;-62
2023/12/26 15:25:16;;;;;;;1593.93;999.90;;;;;;;;;;5149286;27;20471;-63
2023/12/26 15:27:42;;;;;;;1602.80;999.90;;;;;;;;;;5144119;27;20046;-63
2023/12/26 15:30:10;;;;;;;1608.97;999.90;;;;;;;;;;5132466;27;20026;-63
2023/12/26 15:32:37;;;;;;;1625.28;999.90;;;;;;;;;;5132027;27;20027;-63
2023/12/26 15:35:05;;;;;;;1617.55;999.90;;;;;;;;;;5150643;27;20015;-64
2023/12/26 15:37:31;;;;;;;1619.18;999.90;;;;;;;;;;5150828;27;20034;-62
2023/12/26 15:39:58;;;;;;;1625.45;999.90;;;;;;;;;;5123353;27;20475;-64
2023/12/26 15:42:24;;;;;;;1621.18;999.90;;;;;;;;;;5134268;27;20068;-64
2023/12/26 15:44:52;;;;;;;1626.13;999.90;;;;;;;;;;5135591;27;20019;-64
2023/12/26 15:47:18;;;;;;;1621.30;999.90;;;;;;;;;;5136853;27;20031;-64
2023/12/26 15:49:45;;;;;;;1619.75;999.90;;;;;;;;;;5136959;27;20027;-64
2023/12/26 15:52:12;;;;;;;1591.25;999.90;;;;;;;;;;5137169;27;20074;-64
2023/12/26 15:54:40;;;;;;;1612.05;999.90;;;;;;;;;;5137015;27;20027;-64
2023/12/26 15:57:07;;;;;;;1626.68;999.90;;;;;;;;;;5136942;27;20061;-64
2023/12/26 15:59:34;;;;;;;1627.47;999.90;;;;;;;;;;5127166;27;20400;-65
2023/12/26 16:02:00;;;;;;;1628.93;999.90;;;;;;;;;;5134433;27;20480;-64
2023/12/26 16:04:27;;;;;;;1621.43;999.90;;;;;;;;;;5136757;27;20023;-63
2023/12/26 16:06:53;;;;;;;1601.60;999.90;;;;;;;;;;5136993;27;20096;-65
2023/12/26 16:09:22;;;;;;;1622.45;999.90;;;;;;;;;;5136589;27;20157;-64
2023/12/26 16:11:49;;;;;;;1629.53;999.90;;;;;;;;;;5136591;27;20019;-64
2023/12/26 16:14:16;;;;;;;1620.57;999.90;;;;;;;;;;5136616;27;20027;-63
2023/12/26 16:16:44;;;;;;;1621.03;999.90;;;;;;;;;;5136543;27;20514;-63
2023/12/26 16:19:10;;;;;;;1606.10;999.90;;;;;;;;;;5136243;27;20035;-65
2023/12/26 16:21:39;;;;;;;1628.57;999.90;;;;;;;;;;5136538;27;20031;-64
2023/12/26 16:24:06;;;;;;;1622.20;999.90;;;;;;;;;;5136702;27;20111;-64
2023/12/26 16:26:33;;;;;;;1617.05;999.90;;;;;;;;;;5136299;27;20066;-64
2023/12/26 16:28:59;;;;;;;1605.10;999.90;;;;;;;;;;5136351;27;20039;-65
2023/12/26 16:31:26;;;;;;;1606.35;999.90;;;;;;;;;;5128813;27;20077;-65
2023/12/26 16:33:53;;;;;;;1619.35;999.90;;;;;;;;;;5133994;27;20490;-65
2023/12/26 16:36:20;;;;;;;1590.35;999.90;;;;;;;;;;5136295;27;20031;-64
2023/12/26 16:38:46;;;;;;;1620.78;999.90;;;;;;;;;;5136224;27;20054;-65
2023/12/26 16:41:13;;;;;;;1616.75;999.90;;;;;;;;;;5120931;27;20027;-64
2023/12/26 16:43:40;;;;;;;1617.97;999.90;;;;;;;;;;5115752;28;20460;-64
2023/12/26 16:46:08;;;;;;;1629.80;999.90;;;;;;;;;;5115720;28;20023;-66